sensor_id;sensor_type;location;lat;lon;timestamp;pressure;altitude;pressure_sealevel;temperature;humidity
55540;BME280;41384;51.418;7.286;2023-04-28T00:00:47;99634.06;;;10.27;56.24
55540;BME280;41384;51.418;7.286;2023-04-28T00:03:13;99626.81;;;10.22;56.27
55540;BME280;41384;51.418;7.286;2023-04-28T00:05:38;99633.88;;;10.22;56.57
55540;BME280;41384;51.418;7.286;2023-04-28T00:08:03;99632.06;;;10.22;57.90
55540;BME280;41384;51.418;7.286;2023-04-28T00:10:31;99638.56;;;10.13;62.60
55540;BME280;41384;51.418;7.286;2023-04-28T00:12:57;99630.59;;;10.33;60.66
55540;BME280;41384;51.418;7.286;2023-04-28T00:15:22;99627.97;;;10.33;62.03
55540;BME280;41384;51.418;7.286;2023-04-28T00:17:47;99625.38;;;10.20;62.87
55540;BME280;41384;51.418;7.286;2023-04-28T00:20:13;99619.69;;;10.23;63.02
55540;BME280;41384;51.418;7.286;2023-04-28T00:22:38;99611.19;;;10.14;64.64
55540;BME280;41384;51.418;7.286;2023-04-28T00:25:04;99609.38;;;10.15;65.17
55540;BME280;41384;51.418;7.286;2023-04-28T00:27:31;99599.00;;;10.13;65.37
55540;BME280;41384;51.418;7.286;2023-04-28T00:29:57;99595.16;;;10.16;65.37
55540;BME280;41384;51.418;7.286;2023-04-28T00:32:22;99596.59;;;10.12;66.30
55540;BME280;41384;51.418;7.286;2023-04-28T00:34:47;99588.88;;;10.10;65.14
55540;BME280;41384;51.418;7.286;2023-04-28T00:37:13;99589.28;;;10.07;67.05
55540;BME280;41384;51.418;7.286;2023-04-28T00:39:38;99584.84;;;10.01;70.94
55540;BME280;41384;51.418;7.286;2023-04-28T00:42:05;99580.41;;;9.95;71.30
55540;BME280;41384;51.418;7.286;2023-04-28T00:44:30;99580.84;;;9.91;74.29
55540;BME280;41384;51.418;7.286;2023-04-28T00:46:57;99574.34;;;9.87;75.42
55540;BME280;41384;51.418;7.286;2023-04-28T00:49:23;99565.16;;;10.10;73.49
55540;BME280;41384;51.418;7.286;2023-04-28T00:51:49;99559.00;;;10.30;73.23
55540;BME280;41384;51.418;7.286;2023-04-28T00:54:15;99558.94;;;10.43;74.64
55540;BME280;41384;51.418;7.286;2023-04-28T00:56:40;99555.66;;;10.48;74.65
55540;BME280;41384;51.418;7.286;2023-04-28T00:59:06;99560.56;;;10.37;78.39
55540;BME280;41384;51.418;7.286;2023-04-28T01:01:31;99561.16;;;10.46;77.94
55540;BME280;41384;51.418;7.286;2023-04-28T01:03:57;99551.16;;;10.55;78.35
55540;BME280;41384;51.418;7.286;2023-04-28T01:06:23;99560.75;;;10.49;79.41
55540;BME280;41384;51.418;7.286;2023-04-28T01:08:49;99559.28;;;10.60;79.97
55540;BME280;41384;51.418;7.286;2023-04-28T01:11:15;99554.38;;;10.64;82.01
55540;BME280;41384;51.418;7.286;2023-04-28T01:13:40;99550.69;;;10.65;81.03
55540;BME280;41384;51.418;7.286;2023-04-28T01:16:06;99557.63;;;10.59;80.77
55540;BME280;41384;51.418;7.286;2023-04-28T01:18:32;99544.22;;;10.61;79.88
55540;BME280;41384;51.418;7.286;2023-04-28T01:20:57;99550.88;;;10.70;80.02
55540;BME280;41384;51.418;7.286;2023-04-28T01:23:22;99548.72;;;10.60;80.53
55540;BME280;41384;51.418;7.286;2023-04-28T01:25:47;99545.09;;;10.55;82.15
55540;BME280;41384;51.418;7.286;2023-04-28T01:28:13;99545.44;;;10.58;82.60
55540;BME280;41384;51.418;7.286;2023-04-28T01:30:38;99537.16;;;10.55;82.61
55540;BME280;41384;51.418;7.286;2023-04-28T01:33:03;99542.22;;;10.56;83.56
55540;BME280;41384;51.418;7.286;2023-04-28T01:35:29;99543.22;;;10.62;85.17
55540;BME280;41384;51.418;7.286;2023-04-28T01:37:54;99542.22;;;10.56;85.42
55540;BME280;41384;51.418;7.286;2023-04-28T01:40:20;99543.50;;;10.47;87.78
55540;BME280;41384;51.418;7.286;2023-04-28T01:42:45;99543.50;;;10.47;89.03
55540;BME280;41384;51.418;7.286;2023-04-28T01:45:10;99541.31;;;10.30;92.68
55540;BME280;41384;51.418;7.286;2023-04-28T01:47:36;99534.25;;;10.24;96.27
55540;BME280;41384;51.418;7.286;2023-04-28T01:50:01;99540.59;;;10.16;98.77
55540;BME280;41384;51.418;7.286;2023-04-28T01:52:28;99537.56;;;10.06;100.00
55540;BME280;41384;51.418;7.286;2023-04-28T01:54:53;99543.00;;;10.18;100.00
55540;BME280;41384;51.418;7.286;2023-04-28T01:57:19;99543.19;;;10.23;99.06
55540;BME280;41384;51.418;7.286;2023-04-28T01:59:44;99530.66;;;10.18;100.00
55540;BME280;41384;51.418;7.286;2023-04-28T02:02:10;99522.69;;;10.25;98.90
55540;BME280;41384;51.418;7.286;2023-04-28T02:04:37;99517.22;;;10.27;98.05
55540;BME280;41384;51.418;7.286;2023-04-28T02:07:03;99524.91;;;10.28;95.85
55540;BME280;41384;51.418;7.286;2023-04-28T02:09:28;99517.56;;;10.37;95.86
55540;BME280;41384;51.418;7.286;2023-04-28T02:11:53;99526.06;;;10.39;95.54
55540;BME280;41384;51.418;7.286;2023-04-28T02:14:18;99526.63;;;10.48;92.97
55540;BME280;41384;51.418;7.286;2023-04-28T02:16:44;99537.19;;;10.48;93.88
55540;BME280;41384;51.418;7.286;2023-04-28T02:19:09;99533.50;;;10.56;93.80
55540;BME280;41384;51.418;7.286;2023-04-28T02:21:34;99539.63;;;10.49;96.22
55540;BME280;41384;51.418;7.286;2023-04-28T02:24:00;99534.91;;;10.58;95.86
55540;BME280;41384;51.418;7.286;2023-04-28T02:26:25;99537.75;;;10.57;96.37
55540;BME280;41384;51.418;7.286;2023-04-28T02:28:50;99519.59;;;10.35;99.92
55540;BME280;41384;51.418;7.286;2023-04-28T02:31:16;99519.97;;;10.39;100.00
55540;BME280;41384;51.418;7.286;2023-04-28T02:33:41;99505.22;;;10.31;100.00
55540;BME280;41384;51.418;7.286;2023-04-28T02:36:07;99507.59;;;10.39;99.96
55540;BME280;41384;51.418;7.286;2023-04-28T02:38:32;99503.78;;;10.35;99.74
55540;BME280;41384;51.418;7.286;2023-04-28T02:41:07;99499.34;;;10.29;100.00
55540;BME280;41384;51.418;7.286;2023-04-28T02:43:33;99502.13;;;10.41;100.00
55540;BME280;41384;51.418;7.286;2023-04-28T02:45:59;99497.66;;;10.34;100.00
55540;BME280;41384;51.418;7.286;2023-04-28T02:48:24;99493.22;;;10.35;100.00
55540;BME280;41384;51.418;7.286;2023-04-28T02:50:50;99506.41;;;10.35;100.00
55540;BME280;41384;51.418;7.286;2023-04-28T02:53:20;99500.53;;;10.33;100.00
55540;BME280;41384;51.418;7.286;2023-04-28T02:55:46;99507.84;;;10.31;100.00
55540;BME280;41384;51.418;7.286;2023-04-28T02:58:11;99507.47;;;10.27;100.00
55540;BME280;41384;51.418;7.286;2023-04-28T03:00:37;99496.28;;;10.32;100.00
55540;BME280;41384;51.418;7.286;2023-04-28T03:03:02;99508.53;;;10.19;100.00
55540;BME280;41384;51.418;7.286;2023-04-28T03:05:27;99499.00;;;10.18;100.00
55540;BME280;41384;51.418;7.286;2023-04-28T03:07:53;99496.31;;;10.25;100.00
55540;BME280;41384;51.418;7.286;2023-04-28T03:10:18;99497.31;;;10.24;100.00
55540;BME280;41384;51.418;7.286;2023-04-28T03:12:44;99498.50;;;10.35;100.00
55540;BME280;41384;51.418;7.286;2023-04-28T03:15:09;99497.75;;;10.21;100.00
55540;BME280;41384;51.418;7.286;2023-04-28T03:17:34;99499.94;;;10.31;100.00
55540;BME280;41384;51.418;7.286;2023-04-28T03:20:03;99489.03;;;10.20;100.00
55540;BME280;41384;51.418;7.286;2023-04-28T03:22:28;99493.47;;;10.27;100.00
55540;BME280;41384;51.418;7.286;2023-04-28T03:24:54;99483.53;;;10.29;100.00
55540;BME280;41384;51.418;7.286;2023-04-28T03:27:19;99490.59;;;10.28;100.00
55540;BME280;41384;51.418;7.286;2023-04-28T03:29:44;99490.19;;;10.31;100.00
55540;BME280;41384;51.418;7.286;2023-04-28T03:32:10;99478.28;;;10.15;100.00
55540;BME280;41384;51.418;7.286;2023-04-28T03:34:35;99473.66;;;10.17;100.00
55540;BME280;41384;51.418;7.286;2023-04-28T03:37:00;99467.34;;;10.18;100.00
55540;BME280;41384;51.418;7.286;2023-04-28T03:39:26;99474.44;;;10.18;100.00
55540;BME280;41384;51.418;7.286;2023-04-28T03:41:51;99476.50;;;10.09;100.00
55540;BME280;41384;51.418;7.286;2023-04-28T03:44:16;99461.59;;;9.96;100.00
55540;BME280;41384;51.418;7.286;2023-04-28T03:46:41;99458.72;;;9.98;100.00
55540;BME280;41384;51.418;7.286;2023-04-28T03:49:07;99460.94;;;10.01;100.00
55540;BME280;41384;51.418;7.286;2023-04-28T03:51:32;99459.31;;;10.00;100.00
55540;BME280;41384;51.418;7.286;2023-04-28T03:53:58;99449.84;;;9.92;100.00
55540;BME280;41384;51.418;7.286;2023-04-28T03:56:23;99450.81;;;9.98;100.00
55540;BME280;41384;51.418;7.286;2023-04-28T03:58:48;99445.97;;;9.95;100.00
55540;BME280;41384;51.418;7.286;2023-04-28T04:01:14;99441.16;;;9.85;100.00
55540;BME280;41384;51.418;7.286;2023-04-28T04:03:39;99440.50;;;9.89;100.00
55540;BME280;41384;51.418;7.286;2023-04-28T04:06:05;99434.47;;;9.82;100.00
55540;BME280;41384;51.418;7.286;2023-04-28T04:08:30;99437.75;;;9.77;100.00
55540;BME280;41384;51.418;7.286;2023-04-28T04:10:56;99432.22;;;9.86;100.00
55540;BME280;41384;51.418;7.286;2023-04-28T04:13:22;99432.00;;;9.87;100.00
55540;BME280;41384;51.418;7.286;2023-04-28T04:15:47;99423.75;;;9.77;100.00
55540;BME280;41384;51.418;7.286;2023-04-28T04:18:14;99417.25;;;9.80;100.00
55540;BME280;41384;51.418;7.286;2023-04-28T04:20:39;99419.91;;;9.80;100.00
55540;BME280;41384;51.418;7.286;2023-04-28T04:23:04;99422.47;;;9.86;100.00
55540;BME280;41384;51.418;7.286;2023-04-28T04:25:29;99404.88;;;9.80;100.00
55540;BME280;41384;51.418;7.286;2023-04-28T04:27:56;99405.28;;;9.84;100.00
55540;BME280;41384;51.418;7.286;2023-04-28T04:30:21;99400.38;;;9.87;100.00
55540;BME280;41384;51.418;7.286;2023-04-28T04:32:46;99395.44;;;9.98;100.00
55540;BME280;41384;51.418;7.286;2023-04-28T04:35:12;99392.72;;;10.11;100.00
55540;BME280;41384;51.418;7.286;2023-04-28T04:37:37;99388.53;;;10.03;100.00
55540;BME280;41384;51.418;7.286;2023-04-28T04:40:03;99393.81;;;9.97;100.00
55540;BME280;41384;51.418;7.286;2023-04-28T04:42:28;99390.75;;;10.00;100.00
55540;BME280;41384;51.418;7.286;2023-04-28T04:44:53;99380.94;;;10.14;100.00
55540;BME280;41384;51.418;7.286;2023-04-28T04:47:19;99376.94;;;10.04;100.00
55540;BME280;41384;51.418;7.286;2023-04-28T04:49:44;99397.28;;;9.97;100.00
55540;BME280;41384;51.418;7.286;2023-04-28T04:52:09;99392.34;;;10.07;100.00
55540;BME280;41384;51.418;7.286;2023-04-28T04:54:34;99396.88;;;9.93;100.00
55540;BME280;41384;51.418;7.286;2023-04-28T04:57:00;99392.63;;;9.92;100.00
55540;BME280;41384;51.418;7.286;2023-04-28T04:59:26;99401.97;;;9.95;100.00
55540;BME280;41384;51.418;7.286;2023-04-28T05:01:52;99403.50;;;10.10;100.00
55540;BME280;41384;51.418;7.286;2023-04-28T05:04:17;99407.72;;;10.17;100.00
55540;BME280;41384;51.418;7.286;2023-04-28T05:06:42;99420.63;;;10.26;100.00
55540;BME280;41384;51.418;7.286;2023-04-28T05:09:08;99426.06;;;10.31;100.00
55540;BME280;41384;51.418;7.286;2023-04-28T05:11:33;99424.03;;;10.33;100.00
55540;BME280;41384;51.418;7.286;2023-04-28T05:13:58;99423.53;;;10.49;100.00
55540;BME280;41384;51.418;7.286;2023-04-28T05:16:24;99411.81;;;10.39;100.00
55540;BME280;41384;51.418;7.286;2023-04-28T05:18:49;99410.84;;;10.33;100.00
55540;BME280;41384;51.418;7.286;2023-04-28T05:21:15;99412.81;;;10.44;100.00
55540;BME280;41384;51.418;7.286;2023-04-28T05:23:41;99404.25;;;10.49;100.00
55540;BME280;41384;51.418;7.286;2023-04-28T05:26:06;99400.72;;;10.55;100.00
55540;BME280;41384;51.418;7.286;2023-04-28T05:28:31;99404.50;;;10.66;100.00
55540;BME280;41384;51.418;7.286;2023-04-28T05:30:57;99402.34;;;10.56;100.00
55540;BME280;41384;51.418;7.286;2023-04-28T05:33:22;99397.81;;;10.38;100.00
55540;BME280;41384;51.418;7.286;2023-04-28T05:35:48;99385.75;;;10.49;100.00
55540;BME280;41384;51.418;7.286;2023-04-28T05:38:13;99389.69;;;10.40;100.00
55540;BME280;41384;51.418;7.286;2023-04-28T05:40:39;99383.22;;;10.35;100.00
55540;BME280;41384;51.418;7.286;2023-04-28T05:43:04;99383.44;;;10.34;100.00
55540;BME280;41384;51.418;7.286;2023-04-28T05:45:29;99371.78;;;10.48;100.00
55540;BME280;41384;51.418;7.286;2023-04-28T05:47:55;99373.81;;;10.46;100.00
55540;BME280;41384;51.418;7.286;2023-04-28T05:50:20;99368.56;;;10.46;100.00
55540;BME280;41384;51.418;7.286;2023-04-28T05:52:45;99355.94;;;10.48;100.00
55540;BME280;41384;51.418;7.286;2023-04-28T05:55:11;99353.47;;;10.54;100.00
55540;BME280;41384;51.418;7.286;2023-04-28T05:57:36;99347.69;;;10.38;100.00
55540;BME280;41384;51.418;7.286;2023-04-28T06:00:02;99350.28;;;10.45;100.00
55540;BME280;41384;51.418;7.286;2023-04-28T06:02:27;99355.53;;;10.51;100.00
55540;BME280;41384;51.418;7.286;2023-04-28T06:04:53;99349.09;;;10.41;100.00
55540;BME280;41384;51.418;7.286;2023-04-28T06:07:18;99351.09;;;10.45;100.00
55540;BME280;41384;51.418;7.286;2023-04-28T06:09:43;99347.69;;;10.38;100.00
55540;BME280;41384;51.418;7.286;2023-04-28T06:12:09;99353.59;;;10.40;100.00
55540;BME280;41384;51.418;7.286;2023-04-28T06:14:34;99355.59;;;10.38;100.00
55540;BME280;41384;51.418;7.286;2023-04-28T06:17:02;99356.81;;;10.42;100.00
55540;BME280;41384;51.418;7.286;2023-04-28T06:19:27;99351.09;;;10.45;100.00
55540;BME280;41384;51.418;7.286;2023-04-28T06:21:52;99347.97;;;10.55;100.00
55540;BME280;41384;51.418;7.286;2023-04-28T06:24:17;99342.72;;;10.74;100.00
55540;BME280;41384;51.418;7.286;2023-04-28T06:26:43;99348.06;;;10.86;100.00
55540;BME280;41384;51.418;7.286;2023-04-28T06:29:08;99348.06;;;10.86;100.00
55540;BME280;41384;51.418;7.286;2023-04-28T06:31:33;99346.59;;;10.90;100.00
55540;BME280;41384;51.418;7.286;2023-04-28T06:33:58;99349.63;;;10.93;100.00
55540;BME280;41384;51.418;7.286;2023-04-28T06:36:24;99349.84;;;10.92;100.00
55540;BME280;41384;51.418;7.286;2023-04-28T06:38:49;99343.81;;;11.03;100.00
55540;BME280;41384;51.418;7.286;2023-04-28T06:41:15;99346.44;;;11.03;100.00
55540;BME280;41384;51.418;7.286;2023-04-28T06:43:40;99334.72;;;11.18;100.00
55540;BME280;41384;51.418;7.286;2023-04-28T06:46:05;99321.66;;;11.23;100.00
55540;BME280;41384;51.418;7.286;2023-04-28T06:48:31;99323.94;;;11.19;100.00
55540;BME280;41384;51.418;7.286;2023-04-28T06:50:56;99324.50;;;11.21;100.00
55540;BME280;41384;51.418;7.286;2023-04-28T06:53:21;99327.28;;;11.27;100.00
55540;BME280;41384;51.418;7.286;2023-04-28T06:55:47;99322.53;;;11.35;100.00
55540;BME280;41384;51.418;7.286;2023-04-28T06:58:12;99332.31;;;11.47;100.00
55540;BME280;41384;51.418;7.286;2023-04-28T07:00:37;99324.22;;;11.60;100.00
55540;BME280;41384;51.418;7.286;2023-04-28T07:03:03;99335.28;;;11.69;100.00
55540;BME280;41384;51.418;7.286;2023-04-28T07:05:28;99336.06;;;11.58;100.00
55540;BME280;41384;51.418;7.286;2023-04-28T07:07:53;99339.16;;;11.36;100.00
55540;BME280;41384;51.418;7.286;2023-04-28T07:10:19;99337.38;;;11.18;100.00
55540;BME280;41384;51.418;7.286;2023-04-28T07:12:45;99327.66;;;11.30;100.00
55540;BME280;41384;51.418;7.286;2023-04-28T07:15:11;99326.31;;;11.39;100.00
55540;BME280;41384;51.418;7.286;2023-04-28T07:17:37;99316.22;;;11.36;100.00
55540;BME280;41384;51.418;7.286;2023-04-28T07:20:02;99320.00;;;11.41;100.00
55540;BME280;41384;51.418;7.286;2023-04-28T07:22:29;99311.25;;;11.59;100.00
55540;BME280;41384;51.418;7.286;2023-04-28T07:24:54;99311.97;;;11.78;100.00
55540;BME280;41384;51.418;7.286;2023-04-28T07:27:19;99314.16;;;11.81;100.00
55540;BME280;41384;51.418;7.286;2023-04-28T07:29:45;99311.94;;;11.66;100.00
55540;BME280;41384;51.418;7.286;2023-04-28T07:32:10;99313.00;;;11.77;100.00
55540;BME280;41384;51.418;7.286;2023-04-28T07:34:35;99318.31;;;11.89;100.00
55540;BME280;41384;51.418;7.286;2023-04-28T07:37:02;99306.53;;;11.73;100.00
55540;BME280;41384;51.418;7.286;2023-04-28T07:39:29;99301.13;;;11.67;100.00
55540;BME280;41384;51.418;7.286;2023-04-28T07:41:55;99309.78;;;11.75;100.00
55540;BME280;41384;51.418;7.286;2023-04-28T07:44:22;99313.69;;;11.84;100.00
55540;BME280;41384;51.418;7.286;2023-04-28T07:46:47;99313.81;;;11.89;100.00
55540;BME280;41384;51.418;7.286;2023-04-28T07:49:12;99324.38;;;12.08;100.00
55540;BME280;41384;51.418;7.286;2023-04-28T07:51:37;99312.06;;;12.25;100.00
55540;BME280;41384;51.418;7.286;2023-04-28T07:54:03;99313.09;;;12.36;100.00
55540;BME280;41384;51.418;7.286;2023-04-28T07:56:28;99322.78;;;12.43;100.00
55540;BME280;41384;51.418;7.286;2023-04-28T07:58:54;99321.97;;;12.54;100.00
55540;BME280;41384;51.418;7.286;2023-04-28T08:01:19;99328.53;;;12.51;100.00
55540;BME280;41384;51.418;7.286;2023-04-28T08:03:45;99325.66;;;12.53;100.00
55540;BME280;41384;51.418;7.286;2023-04-28T08:06:10;99323.09;;;12.70;100.00
55540;BME280;41384;51.418;7.286;2023-04-28T08:08:35;99337.94;;;12.71;100.00
55540;BME280;41384;51.418;7.286;2023-04-28T08:11:01;99339.09;;;12.75;100.00
55540;BME280;41384;51.418;7.286;2023-04-28T08:13:26;99343.91;;;12.78;100.00
55540;BME280;41384;51.418;7.286;2023-04-28T08:15:53;99338.88;;;12.77;100.00
55540;BME280;41384;51.418;7.286;2023-04-28T08:18:20;99338.19;;;12.81;100.00
55540;BME280;41384;51.418;7.286;2023-04-28T08:20:45;99337.16;;;12.82;100.00
55540;BME280;41384;51.418;7.286;2023-04-28T08:23:11;99331.03;;;12.82;100.00
55540;BME280;41384;51.418;7.286;2023-04-28T08:25:36;99328.94;;;12.96;100.00
55540;BME280;41384;51.418;7.286;2023-04-28T08:28:01;99339.28;;;13.09;100.00
55540;BME280;41384;51.418;7.286;2023-04-28T08:30:28;99334.72;;;12.93;100.00
55540;BME280;41384;51.418;7.286;2023-04-28T08:32:53;99338.41;;;12.92;100.00
55540;BME280;41384;51.418;7.286;2023-04-28T08:35:18;99332.38;;;12.96;100.00
55540;BME280;41384;51.418;7.286;2023-04-28T08:37:44;99331.59;;;12.96;100.00
55540;BME280;41384;51.418;7.286;2023-04-28T08:40:09;99333.22;;;12.97;100.00
55540;BME280;41384;51.418;7.286;2023-04-28T08:42:35;99324.78;;;13.00;100.00
55540;BME280;41384;51.418;7.286;2023-04-28T08:45:03;99329.63;;;13.03;100.00
55540;BME280;41384;51.418;7.286;2023-04-28T08:47:38;99330.75;;;13.07;100.00
55540;BME280;41384;51.418;7.286;2023-04-28T08:50:12;99324.38;;;13.20;100.00
55540;BME280;41384;51.418;7.286;2023-04-28T08:52:39;99326.09;;;13.26;100.00
55540;BME280;41384;51.418;7.286;2023-04-28T08:55:07;99318.47;;;13.30;100.00
55540;BME280;41384;51.418;7.286;2023-04-28T08:57:52;99322.97;;;13.30;100.00
55540;BME280;41384;51.418;7.286;2023-04-28T09:00:18;99325.84;;;13.28;100.00
55540;BME280;41384;51.418;7.286;2023-04-28T09:02:44;99319.97;;;13.26;100.00
55540;BME280;41384;51.418;7.286;2023-04-28T09:05:10;99313.19;;;13.18;100.00
55540;BME280;41384;51.418;7.286;2023-04-28T09:07:36;99317.41;;;13.02;100.00
55540;BME280;41384;51.418;7.286;2023-04-28T09:10:15;99321.47;;;12.93;100.00
55540;BME280;41384;51.418;7.286;2023-04-28T09:12:41;99314.50;;;13.04;100.00
55540;BME280;41384;51.418;7.286;2023-04-28T09:15:07;99311.97;;;13.09;100.00
55540;BME280;41384;51.418;7.286;2023-04-28T09:17:47;99310.22;;;13.14;100.00
55540;BME280;41384;51.418;7.286;2023-04-28T09:20:23;99301.44;;;13.26;100.00
55540;BME280;41384;51.418;7.286;2023-04-28T09:22:49;99299.53;;;13.38;100.00
55540;BME280;41384;51.418;7.286;2023-04-28T09:25:16;99302.88;;;13.46;100.00
55540;BME280;41384;51.418;7.286;2023-04-28T09:27:41;99303.88;;;13.56;100.00
55540;BME280;41384;51.418;7.286;2023-04-28T09:30:07;99312.06;;;13.55;100.00
55540;BME280;41384;51.418;7.286;2023-04-28T09:32:34;99304.91;;;13.55;100.00
55540;BME280;41384;51.418;7.286;2023-04-28T09:35:00;99311.75;;;13.68;100.00
55540;BME280;41384;51.418;7.286;2023-04-28T09:37:27;99323.59;;;13.78;100.00
55540;BME280;41384;51.418;7.286;2023-04-28T09:39:55;99313.22;;;13.76;100.00
55540;BME280;41384;51.418;7.286;2023-04-28T09:42:40;99304.53;;;13.98;100.00
55540;BME280;41384;51.418;7.286;2023-04-28T09:45:07;99316.53;;;14.00;100.00
55540;BME280;41384;51.418;7.286;2023-04-28T09:47:36;99315.41;;;13.96;100.00
55540;BME280;41384;51.418;7.286;2023-04-28T09:50:04;99313.63;;;14.02;100.00
55540;BME280;41384;51.418;7.286;2023-04-28T09:52:32;99315.78;;;14.05;100.00
55540;BME280;41384;51.418;7.286;2023-04-28T09:54:57;99316.94;;;13.92;100.00
55540;BME280;41384;51.418;7.286;2023-04-28T09:57:23;99317.09;;;13.85;100.00
55540;BME280;41384;51.418;7.286;2023-04-28T09:59:50;99310.56;;;13.76;100.00
55540;BME280;41384;51.418;7.286;2023-04-28T10:02:18;99315.31;;;13.74;100.00
55540;BME280;41384;51.418;7.286;2023-04-28T10:04:45;99317.53;;;13.65;100.00
55540;BME280;41384;51.418;7.286;2023-04-28T10:07:11;99309.44;;;13.72;100.00
55540;BME280;41384;51.418;7.286;2023-04-28T10:09:38;99302.22;;;13.84;100.00
55540;BME280;41384;51.418;7.286;2023-04-28T10:12:07;99308.97;;;13.92;100.00
55540;BME280;41384;51.418;7.286;2023-04-28T10:14:34;99299.88;;;14.05;100.00
55540;BME280;41384;51.418;7.286;2023-04-28T10:17:00;99302.31;;;14.07;100.00
55540;BME280;41384;51.418;7.286;2023-04-28T10:19:27;99301.75;;;14.22;100.00
55540;BME280;41384;51.418;7.286;2023-04-28T10:22:09;99298.34;;;14.26;100.00
55540;BME280;41384;51.418;7.286;2023-04-28T10:27:40;99299.00;;;14.17;100.00
55540;BME280;41384;51.418;7.286;2023-04-28T10:30:10;99302.94;;;14.14;100.00
55540;BME280;41384;51.418;7.286;2023-04-28T10:32:36;99298.69;;;14.13;100.00
55540;BME280;41384;51.418;7.286;2023-04-28T10:40:40;99287.25;;;14.12;100.00
55540;BME280;41384;51.418;7.286;2023-04-28T10:43:07;99289.66;;;14.31;100.00
55540;BME280;41384;51.418;7.286;2023-04-28T10:56:19;99289.13;;;14.12;100.00
55540;BME280;41384;51.418;7.286;2023-04-28T10:58:53;99297.63;;;14.14;100.00
55540;BME280;41384;51.418;7.286;2023-04-28T11:11:39;99289.03;;;13.90;100.00
55540;BME280;41384;51.418;7.286;2023-04-28T11:16:50;99298.69;;;13.79;100.00
55540;BME280;41384;51.418;7.286;2023-04-28T11:19:21;99296.19;;;13.72;100.00
55540;BME280;41384;51.418;7.286;2023-04-28T11:21:47;99297.13;;;13.66;100.00
55540;BME280;41384;51.418;7.286;2023-04-28T11:24:13;99294.06;;;13.57;100.00
55540;BME280;41384;51.418;7.286;2023-04-28T11:26:40;99284.56;;;13.61;100.00
55540;BME280;41384;51.418;7.286;2023-04-28T11:29:06;99289.09;;;13.61;100.00
55540;BME280;41384;51.418;7.286;2023-04-28T11:31:32;99296.63;;;13.52;100.00
55540;BME280;41384;51.418;7.286;2023-04-28T11:36:34;99310.22;;;13.55;100.00
55540;BME280;41384;51.418;7.286;2023-04-28T11:39:27;99298.34;;;13.75;100.00
55540;BME280;41384;51.418;7.286;2023-04-28T11:41:53;99300.09;;;13.69;100.00
55540;BME280;41384;51.418;7.286;2023-04-28T11:44:20;99299.47;;;13.79;100.00
55540;BME280;41384;51.418;7.286;2023-04-28T11:47:06;99294.50;;;13.83;100.00
55540;BME280;41384;51.418;7.286;2023-04-28T11:49:42;99298.50;;;13.85;100.00
55540;BME280;41384;51.418;7.286;2023-04-28T11:52:08;99299.41;;;13.91;100.00
55540;BME280;41384;51.418;7.286;2023-04-28T11:54:34;99298.84;;;13.89;100.00
55540;BME280;41384;51.418;7.286;2023-04-28T11:57:00;99294.66;;;13.93;100.00
55540;BME280;41384;51.418;7.286;2023-04-28T11:59:32;99308.66;;;14.06;100.00
55540;BME280;41384;51.418;7.286;2023-04-28T12:02:00;99310.19;;;14.01;100.00
55540;BME280;41384;51.418;7.286;2023-04-28T12:04:37;99295.78;;;13.97;100.00
55540;BME280;41384;51.418;7.286;2023-04-28T12:07:14;99302.16;;;13.96;100.00
55540;BME280;41384;51.418;7.286;2023-04-28T12:09:44;99304.31;;;13.99;100.00
55540;BME280;41384;51.418;7.286;2023-04-28T12:12:15;99299.50;;;13.96;100.00
55540;BME280;41384;51.418;7.286;2023-04-28T12:15:03;99299.56;;;14.01;100.00
55540;BME280;41384;51.418;7.286;2023-04-28T12:17:35;99298.69;;;14.13;100.00
55540;BME280;41384;51.418;7.286;2023-04-28T12:20:06;99296.19;;;14.23;100.00
55540;BME280;41384;51.418;7.286;2023-04-28T12:23:01;99294.78;;;14.38;100.00
55540;BME280;41384;51.418;7.286;2023-04-28T12:25:27;99296.88;;;14.36;100.00
55540;BME280;41384;51.418;7.286;2023-04-28T12:28:05;99301.69;;;14.39;100.00
55540;BME280;41384;51.418;7.286;2023-04-28T12:30:36;99299.59;;;14.41;100.00
55540;BME280;41384;51.418;7.286;2023-04-28T12:33:23;99300.72;;;14.45;100.00
55540;BME280;41384;51.418;7.286;2023-04-28T12:35:49;99294.44;;;14.51;100.00
55540;BME280;41384;51.418;7.286;2023-04-28T12:38:14;99301.97;;;14.37;100.00
55540;BME280;41384;51.418;7.286;2023-04-28T12:40:41;99301.97;;;14.37;100.00
55540;BME280;41384;51.418;7.286;2023-04-28T12:43:06;99300.28;;;14.31;100.00
55540;BME280;41384;51.418;7.286;2023-04-28T12:45:31;99300.59;;;14.35;100.00
55540;BME280;41384;51.418;7.286;2023-04-28T12:47:56;99309.59;;;14.34;100.00
55540;BME280;41384;51.418;7.286;2023-04-28T12:50:22;99305.66;;;14.36;100.00
55540;BME280;41384;51.418;7.286;2023-04-28T12:52:48;99305.88;;;14.52;100.00
55540;BME280;41384;51.418;7.286;2023-04-28T12:55:13;99307.00;;;14.56;100.00
55540;BME280;41384;51.418;7.286;2023-04-28T12:57:39;99304.16;;;14.63;100.00
55540;BME280;41384;51.418;7.286;2023-04-28T13:00:05;99304.41;;;14.61;100.00
55540;BME280;41384;51.418;7.286;2023-04-28T13:02:30;99296.38;;;14.73;100.00
55540;BME280;41384;51.418;7.286;2023-04-28T13:04:56;99286.47;;;14.91;100.00
55540;BME280;41384;51.418;7.286;2023-04-28T13:07:21;99297.78;;;15.03;100.00
55540;BME280;41384;51.418;7.286;2023-04-28T13:09:46;99290.41;;;15.10;100.00
55540;BME280;41384;51.418;7.286;2023-04-28T13:12:12;99270.56;;;15.45;100.00
55540;BME280;41384;51.418;7.286;2023-04-28T13:14:37;99272.28;;;15.57;100.00
55540;BME280;41384;51.418;7.286;2023-04-28T13:17:03;99277.88;;;15.60;100.00
55540;BME280;41384;51.418;7.286;2023-04-28T13:19:29;99278.75;;;15.66;100.00
55540;BME280;41384;51.418;7.286;2023-04-28T13:21:55;99288.44;;;15.50;100.00
55540;BME280;41384;51.418;7.286;2023-04-28T13:24:21;99288.84;;;15.37;100.00